createdAt,value
2023-02-27T00:03:38.574Z,2.10
2023-02-27T00:07:37.697Z,2.06
2023-02-27T00:11:37.667Z,2.02
2023-02-27T00:15:39.804Z,1.94
2023-02-27T00:19:37.724Z,1.89
2023-02-27T00:23:37.648Z,1.90
2023-02-27T00:31:37.588Z,1.87
2023-02-27T00:35:37.554Z,1.84
2023-02-27T00:39:37.813Z,1.78
2023-02-27T00:43:37.673Z,1.73
2023-02-27T00:47:37.901Z,1.65
2023-02-27T00:51:39.020Z,1.58
2023-02-27T00:55:37.775Z,1.56
2023-02-27T00:59:37.742Z,1.53
2023-02-27T01:03:37.956Z,1.46
2023-02-27T01:07:37.872Z,1.41
2023-02-27T01:11:37.906Z,1.36
2023-02-27T01:19:38.069Z,1.33
2023-02-27T01:27:37.872Z,1.31
2023-02-27T01:31:37.799Z,1.29
2023-02-27T01:35:37.997Z,1.24
2023-02-27T01:39:37.682Z,1.22
2023-02-27T01:43:56.779Z,1.20
2023-02-27T01:47:41.677Z,1.17
2023-02-27T01:51:42.793Z,1.15
2023-02-27T01:55:38.517Z,1.10
2023-02-27T02:03:44.174Z,1.11
2023-02-27T02:07:41.076Z,1.12
2023-02-27T02:11:38.482Z,1.13
2023-02-27T02:15:45.361Z,1.14
2023-02-27T02:27:51.250Z,1.13
2023-02-27T02:31:57.716Z,1.09
2023-02-27T02:35:57.710Z,1.07
2023-02-27T02:39:52.931Z,1.10
2023-02-27T02:43:46.434Z,1.06
2023-02-27T02:47:45.816Z,1.03
2023-02-27T02:51:46.994Z,1.02
2023-02-27T02:55:45.054Z,1.00
2023-02-27T02:59:46.900Z,0.97
2023-02-27T03:03:43.549Z,0.95
2023-02-27T03:07:42.145Z,0.94
2023-02-27T03:11:43.095Z,0.93
2023-02-27T03:15:44.204Z,0.90
2023-02-27T03:23:42.502Z,0.89
2023-02-27T03:27:42.455Z,0.87
2023-02-27T03:31:44.209Z,0.86
2023-02-27T03:35:45.696Z,0.85
2023-02-27T03:39:44.397Z,0.87
2023-02-27T03:43:47.275Z,0.85
2023-02-27T03:47:38.956Z,0.84
2023-02-27T03:55:41.688Z,0.83
2023-02-27T03:59:38.624Z,0.79
2023-02-27T04:03:47.039Z,0.75
2023-02-27T04:15:49.024Z,0.77
2023-02-27T04:19:54.916Z,0.74
2023-02-27T04:23:44.105Z,0.68
2023-02-27T04:27:44.349Z,0.62
2023-02-27T04:31:44.604Z,0.60
2023-02-27T04:35:46.634Z,0.57
2023-02-27T04:39:42.496Z,0.56
2023-02-27T04:43:41.104Z,0.55
2023-02-27T04:47:46.387Z,0.53
2023-02-27T04:55:42.585Z,0.51
2023-02-27T05:03:42.512Z,0.50
2023-02-27T05:11:47.093Z,0.54
2023-02-27T05:19:41.598Z,0.55
2023-02-27T05:23:42.948Z,0.59
2023-02-27T05:27:45.992Z,0.66
2023-02-27T05:31:47.113Z,0.70
2023-02-27T05:35:46.345Z,0.74
2023-02-27T05:39:41.048Z,0.80
2023-02-27T05:43:43.920Z,0.85
2023-02-27T05:47:43.250Z,0.89
2023-02-27T05:51:42.066Z,0.92
2023-02-27T05:55:42.433Z,0.96
2023-02-27T05:59:44.224Z,1.02
2023-02-27T06:03:40.182Z,1.06
2023-02-27T06:07:38.673Z,1.10
2023-02-27T06:11:38.504Z,1.14
2023-02-27T06:15:38.565Z,1.16
2023-02-27T06:19:38.578Z,1.20
2023-02-27T06:23:39.128Z,1.24
2023-02-27T06:27:38.628Z,1.26
2023-02-27T06:31:38.651Z,1.30
2023-02-27T06:35:38.754Z,1.32
2023-02-27T06:39:38.608Z,1.33
2023-02-27T06:43:38.698Z,1.37
2023-02-27T06:47:39.472Z,1.41
2023-02-27T06:51:38.678Z,1.44
2023-02-27T06:55:38.656Z,1.47
2023-02-27T06:59:38.683Z,1.49
2023-02-27T07:03:38.650Z,1.52
2023-02-27T07:07:39.179Z,1.57
2023-02-27T07:11:38.559Z,1.60
2023-02-27T07:15:39.234Z,1.63
2023-02-27T07:19:38.647Z,1.67
2023-02-27T07:23:38.719Z,1.71
2023-02-27T07:27:38.912Z,1.75
2023-02-27T07:31:38.775Z,1.78
2023-02-27T07:35:38.782Z,1.80
2023-02-27T07:39:38.793Z,1.83
2023-02-27T07:43:38.902Z,1.87
2023-02-27T07:47:38.763Z,1.89
2023-02-27T07:51:38.757Z,1.92
2023-02-27T07:55:38.803Z,1.97
2023-02-27T07:59:38.742Z,2.04
2023-02-27T08:03:38.817Z,2.09
2023-02-27T08:07:38.786Z,2.15
2023-02-27T08:11:38.802Z,2.18
2023-02-27T08:15:38.898Z,2.22
2023-02-27T08:19:40.034Z,2.26
2023-02-27T08:23:39.170Z,2.28
2023-02-27T08:27:39.624Z,2.32
2023-02-27T08:31:38.939Z,2.35
2023-02-27T08:35:39.173Z,2.39
2023-02-27T08:39:38.868Z,2.43
2023-02-27T08:43:38.970Z,2.49
2023-02-27T08:47:38.864Z,2.56
2023-02-27T08:51:39.134Z,2.62
2023-02-27T08:55:39.092Z,2.67
2023-02-27T08:59:38.946Z,2.77
2023-02-27T09:03:38.916Z,2.86
2023-02-27T09:07:39.206Z,2.95
2023-02-27T09:11:38.993Z,3.05
2023-02-27T09:15:39.018Z,3.13
2023-02-27T09:19:38.912Z,3.20
2023-02-27T09:23:39.654Z,3.27
2023-02-27T09:27:38.926Z,3.31
2023-02-27T09:31:39.252Z,3.41
2023-02-27T09:35:38.960Z,3.49
2023-02-27T09:39:39.251Z,3.57
2023-02-27T09:43:44.913Z,3.62
2023-02-27T09:47:47.175Z,3.73
2023-02-27T09:51:40.720Z,3.86
2023-02-27T09:55:41.727Z,3.99
2023-02-27T09:59:43.444Z,4.06
2023-02-27T10:03:54.502Z,4.10
2023-02-27T10:07:43.907Z,4.18
2023-02-27T10:11:56.121Z,4.25
2023-02-27T10:15:45.403Z,4.29
2023-02-27T10:23:44.582Z,4.31
2023-02-27T10:27:42.578Z,4.36
2023-02-27T10:31:40.233Z,4.43
2023-02-27T10:35:42.803Z,4.51
2023-02-27T10:39:45.920Z,4.57
2023-02-27T10:43:39.463Z,4.60
2023-02-27T10:47:39.788Z,4.65
2023-02-27T10:51:39.134Z,4.73
2023-02-27T10:55:40.257Z,4.81
2023-02-27T10:59:40.738Z,4.90
2023-02-27T11:03:41.838Z,4.98
2023-02-27T11:07:39.272Z,5.00
2023-02-27T11:11:39.436Z,5.01
2023-02-27T11:15:39.654Z,5.06
2023-02-27T11:19:39.357Z,5.10
2023-02-27T11:23:51.081Z,5.14
2023-02-27T11:27:39.739Z,5.18
2023-02-27T11:31:44.985Z,5.20
2023-02-27T11:35:39.440Z,5.23
2023-02-27T11:43:47.388Z,5.22
2023-02-27T11:47:40.520Z,5.28
2023-02-27T11:51:53.589Z,5.39
2023-02-27T11:55:39.528Z,5.45
2023-02-27T12:03:48.510Z,5.43
2023-02-27T12:07:45.452Z,5.41
2023-02-27T12:11:43.183Z,5.43
2023-02-27T12:15:44.327Z,5.49
2023-02-27T12:19:46.612Z,5.54
2023-02-27T12:23:43.096Z,5.58
2023-02-27T12:27:45.758Z,5.63
2023-02-27T12:31:47.538Z,5.66
2023-02-27T12:35:42.838Z,5.68
2023-02-27T12:39:42.287Z,5.70
2023-02-27T12:43:45.281Z,5.74
2023-02-27T12:47:49.278Z,5.76
2023-02-27T12:51:45.541Z,5.79
2023-02-27T12:55:46.248Z,5.83
2023-02-27T12:59:51.352Z,5.85
2023-02-27T13:07:49.592Z,5.86
2023-02-27T13:11:47.813Z,5.90
2023-02-27T13:15:44.894Z,5.93
2023-02-27T13:19:46.262Z,5.95
2023-02-27T13:23:54.747Z,5.98
2023-02-27T13:27:44.873Z,6.04
2023-02-27T13:31:47.111Z,6.11
2023-02-27T13:35:48.712Z,6.13
2023-02-27T13:39:51.818Z,6.15
2023-02-27T13:43:51.514Z,6.13
2023-02-27T13:47:47.706Z,6.09
2023-02-27T13:51:44.180Z,6.12
2023-02-27T13:55:39.668Z,6.25
2023-02-27T13:59:43.300Z,6.35
2023-02-27T14:03:39.924Z,6.37
2023-02-27T14:07:54.134Z,6.34
2023-02-27T14:11:40.161Z,6.37
2023-02-27T14:15:50.443Z,6.42
2023-02-27T14:19:56.065Z,6.35
2023-02-27T14:23:39.908Z,6.27
2023-02-27T14:27:48.801Z,6.23
2023-02-27T14:31:44.137Z,6.22
2023-02-27T14:35:45.047Z,6.19
2023-02-27T14:39:40.183Z,6.15
2023-02-27T14:43:44.024Z,6.12
2023-02-27T14:47:40.365Z,6.05
2023-02-27T14:51:39.937Z,6.02
2023-02-27T14:55:39.862Z,6.10
2023-02-27T14:59:42.889Z,6.31
2023-02-27T15:03:46.345Z,6.51
2023-02-27T15:07:39.926Z,6.58
2023-02-27T15:11:41.194Z,6.54
2023-02-27T15:15:39.926Z,6.48
2023-02-27T15:19:45.608Z,6.43
2023-02-27T15:23:40.118Z,6.53
2023-02-27T15:27:41.422Z,6.71
2023-02-27T15:31:40.131Z,6.66
2023-02-27T15:35:42.442Z,6.57
2023-02-27T15:39:40.352Z,6.50
2023-02-27T15:43:40.402Z,6.44
2023-02-27T15:47:41.757Z,6.41
2023-02-27T15:51:40.132Z,6.40
2023-02-27T15:55:43.379Z,6.58
2023-02-27T15:59:42.055Z,6.90
2023-02-27T16:03:44.599Z,7.24
2023-02-27T16:07:42.848Z,7.56
2023-02-27T16:11:40.369Z,7.70
2023-02-27T16:15:40.627Z,7.52
2023-02-27T16:19:40.038Z,7.29
2023-02-27T16:23:41.123Z,7.06
2023-02-27T16:27:48.493Z,6.88
2023-02-27T16:31:45.955Z,6.72
2023-02-27T16:35:40.268Z,6.66
2023-02-27T16:39:40.141Z,6.91
2023-02-27T16:43:40.994Z,7.32
2023-02-27T16:47:40.204Z,7.54
2023-02-27T16:51:40.243Z,7.60
2023-02-27T16:55:42.454Z,7.32
2023-02-27T16:59:40.183Z,7.11
2023-02-27T17:03:41.011Z,6.93
2023-02-27T17:07:40.482Z,6.75
2023-02-27T17:11:40.133Z,6.63
2023-02-27T17:15:40.282Z,6.53
2023-02-27T17:19:40.302Z,6.44
2023-02-27T17:23:40.267Z,6.36
2023-02-27T17:27:41.101Z,6.28
2023-02-27T17:31:41.111Z,6.20
2023-02-27T17:35:40.448Z,6.13
2023-02-27T17:39:40.612Z,6.07
2023-02-27T17:43:40.630Z,6.05
2023-02-27T17:47:42.121Z,6.06
2023-02-27T17:51:40.603Z,6.20
2023-02-27T17:55:40.978Z,6.38
2023-02-27T17:59:42.226Z,6.55
2023-02-27T18:03:43.184Z,6.67
2023-02-27T18:07:40.409Z,6.76
2023-02-27T18:11:40.623Z,6.81
2023-02-27T18:15:40.485Z,6.83
2023-02-27T18:19:41.670Z,6.86
2023-02-27T18:23:41.171Z,6.82
2023-02-27T18:27:40.385Z,6.80
2023-02-27T18:31:42.492Z,6.78
2023-02-27T18:35:40.619Z,6.71
2023-02-27T18:39:41.704Z,6.69
2023-02-27T18:43:42.220Z,6.65
2023-02-27T18:47:40.424Z,6.58
2023-02-27T18:51:40.680Z,6.52
2023-02-27T18:55:40.488Z,6.44
2023-02-27T18:59:40.670Z,6.35
2023-02-27T19:03:40.525Z,6.27
2023-02-27T19:07:41.508Z,6.21
2023-02-27T19:11:41.196Z,6.18
2023-02-27T19:15:40.589Z,6.16
2023-02-27T19:19:40.725Z,6.08
2023-02-27T19:23:40.588Z,6.00
2023-02-27T19:27:40.706Z,5.95
2023-02-27T19:31:40.706Z,5.91
2023-02-27T19:35:43.227Z,5.85
2023-02-27T19:39:40.857Z,5.79
2023-02-27T19:43:40.826Z,5.72
2023-02-27T19:47:40.803Z,5.63
2023-02-27T19:51:40.700Z,5.56
2023-02-27T19:55:40.852Z,5.53
2023-02-27T19:59:40.661Z,5.45
2023-02-27T20:03:43.711Z,5.40
2023-02-27T20:07:41.369Z,5.35
2023-02-27T20:11:41.491Z,5.31
2023-02-27T20:15:40.637Z,5.28
2023-02-27T20:19:40.657Z,5.23
2023-02-27T20:23:42.742Z,5.16
2023-02-27T20:27:40.749Z,5.12
2023-02-27T20:31:44.818Z,5.05
2023-02-27T20:35:41.115Z,5.00
2023-02-27T20:39:44.079Z,4.94
2023-02-27T20:43:41.911Z,4.89
2023-02-27T20:47:40.919Z,4.84
2023-02-27T20:51:41.820Z,4.77
2023-02-27T20:55:46.399Z,4.70
2023-02-27T20:59:40.935Z,4.63
2023-02-27T21:03:42.920Z,4.55
2023-02-27T21:07:40.944Z,4.49
2023-02-27T21:11:40.855Z,4.44
2023-02-27T21:15:40.940Z,4.41
2023-02-27T21:19:41.131Z,4.37
2023-02-27T21:23:41.661Z,4.32
2023-02-27T21:27:41.014Z,4.27
2023-02-27T21:31:44.020Z,4.24
2023-02-27T21:35:45.201Z,4.22
2023-02-27T21:43:41.037Z,4.20
2023-02-27T21:47:41.007Z,4.13
2023-02-27T21:51:41.350Z,4.09
2023-02-27T21:55:41.089Z,4.05
2023-02-27T21:59:41.521Z,3.99
2023-02-27T22:03:41.537Z,3.94
2023-02-27T22:07:40.969Z,3.91
2023-02-27T22:11:41.318Z,3.86
2023-02-27T22:15:41.531Z,3.85
2023-02-27T22:19:41.129Z,3.80
2023-02-27T22:23:41.201Z,3.77
2023-02-27T22:27:41.041Z,3.71
2023-02-27T22:31:41.176Z,3.66
2023-02-27T22:35:41.051Z,3.63
2023-02-27T22:43:43.620Z,3.61
2023-02-27T22:47:41.243Z,3.55
2023-02-27T22:51:41.817Z,3.53
2023-02-27T22:55:41.062Z,3.49
2023-02-27T22:59:41.169Z,3.43
2023-02-27T23:03:42.556Z,3.38
2023-02-27T23:07:42.497Z,3.32
2023-02-27T23:11:41.701Z,3.29
2023-02-27T23:15:41.277Z,3.26
2023-02-27T23:19:41.398Z,3.22
2023-02-27T23:23:42.132Z,3.17
2023-02-27T23:27:41.369Z,3.14
2023-02-27T23:31:41.637Z,3.13
2023-02-27T23:35:41.214Z,3.10
2023-02-27T23:39:41.327Z,3.09
2023-02-27T23:43:42.718Z,3.08
2023-02-27T23:47:42.017Z,3.04
2023-02-27T23:51:41.463Z,2.99
2023-02-27T23:55:42.713Z,2.97
2023-02-27T23:59:41.241Z,2.95
